createdAt,value
2023-03-17T00:01:48.208Z,100139.03
2023-03-17T00:03:51.924Z,100137.22
2023-03-17T00:05:56.357Z,100144.16
2023-03-17T00:08:04.513Z,100145.84
2023-03-17T00:10:14.806Z,100148.34
2023-03-17T00:12:18.338Z,100145.13
2023-03-17T00:14:23.147Z,100139.59
2023-03-17T00:16:27.796Z,100134.00
2023-03-17T00:18:32.014Z,100126.63
2023-03-17T00:20:34.899Z,100137.72
2023-03-17T00:22:37.979Z,100132.00
2023-03-17T00:24:40.847Z,100125.91
2023-03-17T00:26:43.843Z,100116.09
2023-03-17T00:28:46.912Z,100112.13
2023-03-17T00:30:55.278Z,100115.97
2023-03-17T00:32:59.046Z,100115.00
2023-03-17T00:35:02.398Z,100120.84
2023-03-17T00:37:05.258Z,100117.97
2023-03-17T00:41:16.534Z,100117.47
2023-03-17T00:43:20.096Z,100126.78
2023-03-17T00:45:24.464Z,100125.97
2023-03-17T00:47:29.153Z,100116.66
2023-03-17T00:49:33.003Z,100102.69
2023-03-17T00:51:36.393Z,100109.63
2023-03-17T00:53:40.093Z,100111.88
2023-03-17T00:55:44.884Z,100107.84
2023-03-17T00:57:48.926Z,100104.75
2023-03-17T00:59:52.663Z,100106.03
2023-03-17T01:01:55.702Z,100096.81
2023-03-17T01:04:00.096Z,100093.13
2023-03-17T01:06:05.035Z,100090.13
2023-03-17T01:08:09.514Z,100090.75
2023-03-17T01:10:15.845Z,100099.34
2023-03-17T01:12:18.923Z,100106.16
2023-03-17T01:14:22.835Z,100110.47
2023-03-17T01:16:25.794Z,100103.66
2023-03-17T01:18:29.133Z,100108.66
2023-03-17T01:20:35.697Z,100108.06
2023-03-17T01:22:38.624Z,100097.81
2023-03-17T01:24:41.771Z,100103.31
2023-03-17T01:26:45.152Z,100097.91
2023-03-17T01:28:48.229Z,100095.78
2023-03-17T01:30:51.463Z,100084.19
2023-03-17T01:32:55.945Z,100087.78
2023-03-17T01:34:59.624Z,100079.91
2023-03-17T01:37:04.108Z,100076.41
2023-03-17T01:39:07.711Z,100082.38
2023-03-17T01:41:11.584Z,100070.09
2023-03-17T01:43:21.061Z,100079.03
2023-03-17T01:46:00.915Z,100073.56
2023-03-17T01:48:04.203Z,100064.72
2023-03-17T01:50:10.466Z,100057.19
2023-03-17T01:52:18.655Z,100050.84
2023-03-17T01:54:26.573Z,100037.47
2023-03-17T01:56:30.535Z,100046.06
2023-03-17T01:58:34.725Z,100031.13
2023-03-17T02:00:38.364Z,100035.66
2023-03-17T02:02:44.134Z,100030.13
2023-03-17T02:04:47.142Z,100022.38
2023-03-17T02:06:57.945Z,100027.41
2023-03-17T02:09:03.400Z,100028.09
2023-03-17T02:11:07.325Z,100031.69
2023-03-17T02:13:12.863Z,100023.22
2023-03-17T02:15:16.006Z,100014.03
2023-03-17T02:17:21.503Z,100016.91
2023-03-17T02:19:24.833Z,100013.19
2023-03-17T02:21:38.733Z,100013.81
2023-03-17T02:23:44.534Z,100006.59
2023-03-17T02:25:47.973Z,100001.84
2023-03-17T02:27:55.132Z,100011.78
2023-03-17T02:29:58.542Z,100002.09
2023-03-17T02:32:01.674Z,100001.63
2023-03-17T02:34:06.154Z,99996.13
2023-03-17T02:36:09.883Z,100004.38
2023-03-17T02:38:14.481Z,100004.38
2023-03-17T02:40:17.856Z,100014.06
2023-03-17T02:42:21.278Z,100017.53
2023-03-17T02:44:24.159Z,100021.59
2023-03-17T02:46:29.660Z,100023.03
2023-03-17T02:48:37.753Z,100014.31
2023-03-17T02:50:41.016Z,100021.84
2023-03-17T02:52:43.858Z,100014.56
2023-03-17T02:54:48.520Z,100004.41
2023-03-17T02:56:51.499Z,100002.34
2023-03-17T02:58:54.423Z,100000.31
2023-03-17T03:00:57.391Z,100006.41
2023-03-17T03:03:00.307Z,100009.97
2023-03-17T03:05:03.390Z,100011.31
2023-03-17T03:07:06.964Z,100023.75
2023-03-17T03:09:10.910Z,100018.22
2023-03-17T03:11:15.601Z,100028.53
2023-03-17T03:13:18.417Z,100027.34
2023-03-17T03:15:21.905Z,100039.28
2023-03-17T03:17:24.949Z,100046.69
2023-03-17T03:19:28.600Z,100050.50
2023-03-17T03:21:31.954Z,100038.06
2023-03-17T03:23:35.039Z,100049.28
2023-03-17T03:25:38.350Z,100049.44
2023-03-17T03:27:42.771Z,100038.31
2023-03-17T03:29:45.600Z,100042.38
2023-03-17T03:31:49.019Z,100034.75
2023-03-17T03:33:51.986Z,100037.00
2023-03-17T03:35:55.158Z,100027.94
2023-03-17T03:37:58.256Z,100023.38
2023-03-17T03:40:01.290Z,100023.38
2023-03-17T03:42:04.493Z,100031.28
2023-03-17T03:44:09.091Z,100026.00
2023-03-17T03:46:11.961Z,100025.06
2023-03-17T03:48:14.980Z,100022.56
2023-03-17T03:50:18.306Z,100028.28
2023-03-17T03:52:22.728Z,100025.91
2023-03-17T03:54:25.669Z,100026.13
2023-03-17T03:56:28.590Z,100022.50
2023-03-17T03:58:31.398Z,100015.81
2023-03-17T04:00:36.093Z,100018.09
2023-03-17T04:02:39.243Z,100013.69
2023-03-17T04:04:43.056Z,100006.53
2023-03-17T04:06:46.154Z,100009.63
2023-03-17T04:08:49.325Z,99999.13
2023-03-17T04:10:52.195Z,99994.84
2023-03-17T04:12:56.121Z,100002.00
2023-03-17T04:14:59.048Z,99995.78
2023-03-17T04:17:05.048Z,100002.25
2023-03-17T04:19:07.975Z,99996.25
2023-03-17T04:21:10.985Z,99994.84
2023-03-17T04:23:14.189Z,99995.69
2023-03-17T04:25:17.294Z,99995.34
2023-03-17T04:27:20.172Z,99991.25
2023-03-17T04:29:23.775Z,99993.66
2023-03-17T04:31:26.743Z,100002.75
2023-03-17T04:33:31.157Z,100008.09
2023-03-17T04:35:34.122Z,100012.88
2023-03-17T04:37:37.097Z,100011.69
2023-03-17T04:39:40.149Z,100016.44
2023-03-17T04:41:44.035Z,100021.34
2023-03-17T04:43:46.923Z,100024.00
2023-03-17T04:45:49.851Z,100029.25
2023-03-17T04:47:52.806Z,100021.00
2023-03-17T04:49:57.194Z,100020.50
2023-03-17T04:52:00.094Z,100018.38
2023-03-17T04:54:03.244Z,100027.44
2023-03-17T04:56:06.982Z,100015.84
2023-03-17T04:58:11.762Z,100017.88
2023-03-17T05:00:16.966Z,100026.59
2023-03-17T05:02:20.166Z,100025.41
2023-03-17T05:04:31.070Z,100030.41
2023-03-17T05:06:37.546Z,100024.81
2023-03-17T05:08:40.511Z,100030.41
2023-03-17T05:10:43.414Z,100020.28
2023-03-17T05:12:46.319Z,100013.94
2023-03-17T05:14:49.245Z,100017.28
2023-03-17T05:16:52.462Z,100012.50
2023-03-17T05:18:55.741Z,100011.66
2023-03-17T05:20:58.747Z,100009.41
2023-03-17T05:23:03.347Z,100008.44
2023-03-17T05:25:07.314Z,100004.84
2023-03-17T05:27:10.265Z,100007.72
2023-03-17T05:29:13.240Z,100012.88
2023-03-17T05:31:16.276Z,100014.16
2023-03-17T05:33:20.470Z,100009.81
2023-03-17T05:35:23.975Z,100014.38
2023-03-17T05:37:26.973Z,100005.84
2023-03-17T05:39:31.554Z,100011.47
2023-03-17T05:41:34.502Z,100013.88
2023-03-17T05:43:37.793Z,100008.78
2023-03-17T05:45:41.595Z,100005.31
2023-03-17T05:47:44.756Z,100008.22
2023-03-17T05:49:47.634Z,100009.66
2023-03-17T05:51:50.676Z,100008.97
2023-03-17T05:53:53.604Z,100009.06
2023-03-17T05:55:58.096Z,100008.25
2023-03-17T05:58:01.245Z,100007.69
2023-03-17T06:00:05.612Z,100009.28
2023-03-17T06:02:09.033Z,100013.69
2023-03-17T06:04:12.273Z,100005.66
2023-03-17T06:06:15.326Z,100005.34
2023-03-17T06:08:18.401Z,100006.59
2023-03-17T06:10:21.753Z,99999.41
2023-03-17T06:12:26.637Z,100018.78
2023-03-17T06:14:29.426Z,100010.84
2023-03-17T06:16:33.623Z,100007.03
2023-03-17T06:18:37.125Z,100018.47
2023-03-17T06:20:40.181Z,100015.41
2023-03-17T06:23:00.484Z,100005.19
2023-03-17T06:25:06.821Z,100007.75
2023-03-17T06:27:11.297Z,100023.41
2023-03-17T06:29:16.427Z,100023.72
2023-03-17T06:31:20.932Z,100031.31
2023-03-17T06:33:24.303Z,100019.69
2023-03-17T06:35:27.889Z,100026.28
2023-03-17T06:37:31.186Z,100038.09
2023-03-17T06:39:34.066Z,100039.06
2023-03-17T06:41:37.337Z,100038.16
2023-03-17T06:43:40.155Z,100026.53
2023-03-17T06:45:44.546Z,100033.97
2023-03-17T06:47:47.426Z,100038.94
2023-03-17T06:49:50.528Z,100033.28
2023-03-17T06:51:54.441Z,100039.91
2023-03-17T06:53:57.618Z,100030.72
2023-03-17T06:56:00.616Z,100032.78
2023-03-17T06:58:03.808Z,100041.72
2023-03-17T07:00:08.105Z,100037.13
2023-03-17T07:02:13.009Z,100039.56
2023-03-17T07:04:16.183Z,100051.38
2023-03-17T07:06:19.317Z,100062.16
2023-03-17T07:08:22.486Z,100062.56
2023-03-17T07:10:25.836Z,100060.78
2023-03-17T07:12:29.165Z,100059.22
2023-03-17T07:14:34.129Z,100053.59
2023-03-17T07:16:37.901Z,100051.41
2023-03-17T07:18:42.653Z,100056.19
2023-03-17T07:20:45.505Z,100055.31
2023-03-17T07:22:48.477Z,100046.78
2023-03-17T07:24:52.271Z,100051.09
2023-03-17T07:26:55.277Z,100059.31
2023-03-17T07:29:01.272Z,100046.50
2023-03-17T07:31:08.127Z,100043.00
2023-03-17T07:33:11.618Z,100044.91
2023-03-17T07:35:16.448Z,100048.19
2023-03-17T07:37:19.725Z,100048.75
2023-03-17T07:39:22.813Z,100044.03
2023-03-17T07:41:25.805Z,100037.78
2023-03-17T07:43:28.797Z,100047.88
2023-03-17T07:45:33.474Z,100051.03
2023-03-17T07:47:36.752Z,100037.28
2023-03-17T07:49:41.903Z,100047.06
2023-03-17T07:51:46.996Z,100044.16
2023-03-17T07:53:53.356Z,100037.22
2023-03-17T07:55:56.436Z,100032.78
2023-03-17T07:57:59.464Z,100035.69
2023-03-17T08:00:02.620Z,100028.19
2023-03-17T08:02:16.850Z,100026.94
2023-03-17T08:04:19.405Z,100011.03
2023-03-17T08:06:22.609Z,100018.16
2023-03-17T08:08:28.556Z,100015.06
2023-03-17T08:10:31.944Z,100005.69
2023-03-17T08:12:35.474Z,100011.53
2023-03-17T08:14:38.295Z,100011.19
2023-03-17T08:16:41.681Z,100013.31
2023-03-17T08:18:45.109Z,100004.63
2023-03-17T08:20:48.267Z,100003.16
2023-03-17T08:22:51.360Z,100012.41
2023-03-17T08:24:56.023Z,100008.53
2023-03-17T08:27:00.838Z,100011.44
2023-03-17T08:29:05.309Z,100011.16
2023-03-17T08:31:13.944Z,100009.72
2023-03-17T08:33:17.368Z,100003.38
2023-03-17T08:35:21.149Z,99998.41
2023-03-17T08:37:25.103Z,99988.44
2023-03-17T08:39:28.175Z,99995.44
2023-03-17T08:41:32.929Z,99995.56
2023-03-17T08:43:37.636Z,99992.66
2023-03-17T08:45:41.048Z,99991.50
2023-03-17T08:47:43.976Z,99993.94
2023-03-17T08:49:47.136Z,99994.63
2023-03-17T08:51:50.165Z,100001.09
2023-03-17T08:53:54.224Z,99997.34
2023-03-17T08:55:58.015Z,99991.97
2023-03-17T08:58:03.866Z,99998.81
2023-03-17T09:00:11.303Z,99991.00
2023-03-17T09:02:15.277Z,99996.41
2023-03-17T09:04:18.258Z,99988.06
2023-03-17T09:06:22.492Z,99991.59
2023-03-17T09:08:26.889Z,99986.72
2023-03-17T09:10:30.696Z,99981.59
2023-03-17T09:12:34.358Z,99980.16
2023-03-17T09:14:43.938Z,99971.72
2023-03-17T09:16:49.077Z,99966.72
2023-03-17T09:18:52.747Z,99975.63
2023-03-17T09:20:55.788Z,99965.41
2023-03-17T09:22:59.468Z,99960.72
2023-03-17T09:25:02.443Z,99954.81
2023-03-17T09:27:05.916Z,99959.03
2023-03-17T09:29:08.908Z,99963.63
2023-03-17T09:31:13.571Z,99960.41
2023-03-17T09:33:18.058Z,99962.78
2023-03-17T09:35:21.113Z,99966.81
2023-03-17T09:37:24.308Z,99965.19
2023-03-17T09:39:27.862Z,99958.03
2023-03-17T09:41:49.216Z,99967.25
2023-03-17T09:43:57.127Z,99960.50
2023-03-17T09:46:09.960Z,99963.00
2023-03-17T09:48:42.118Z,99952.34
2023-03-17T09:50:49.207Z,99947.38
2023-03-17T09:52:53.384Z,99951.91
2023-03-17T09:54:57.488Z,99961.44
2023-03-17T09:57:07.084Z,99960.63
2023-03-17T09:59:29.435Z,99948.81
2023-03-17T10:01:32.535Z,99953.19
2023-03-17T10:03:37.790Z,99954.56
2023-03-17T10:05:40.932Z,99952.34
2023-03-17T10:07:52.166Z,99938.34
2023-03-17T10:10:01.797Z,99946.72
2023-03-17T10:12:10.233Z,99947.81
2023-03-17T10:14:30.010Z,99934.41
2023-03-17T10:16:43.153Z,99936.78
2023-03-17T10:18:54.686Z,99943.38
2023-03-17T10:21:02.051Z,99933.16
2023-03-17T10:23:07.965Z,99938.81
2023-03-17T10:25:16.048Z,99936.50
2023-03-17T10:27:19.855Z,99932.81
2023-03-17T10:29:26.893Z,99928.28
2023-03-17T10:31:35.816Z,99940.41
2023-03-17T10:33:38.795Z,99932.97
2023-03-17T10:35:45.221Z,99907.63
2023-03-17T10:37:48.706Z,99907.50
2023-03-17T10:39:52.983Z,99887.63
2023-03-17T10:41:58.391Z,99884.38
2023-03-17T10:44:01.350Z,99884.81
2023-03-17T10:46:05.976Z,99895.72
2023-03-17T10:48:11.000Z,99900.69
2023-03-17T10:50:23.210Z,99905.78
2023-03-17T10:52:30.636Z,99900.69
2023-03-17T10:54:36.364Z,99901.38
2023-03-17T10:56:42.756Z,99903.56
2023-03-17T10:58:49.221Z,99902.38
2023-03-17T11:00:57.189Z,99908.97
2023-03-17T11:03:03.640Z,99906.75
2023-03-17T11:05:17.676Z,99901.59
2023-03-17T11:07:27.476Z,99906.44
2023-03-17T11:09:36.148Z,99892.31
2023-03-17T11:11:44.951Z,99898.56
2023-03-17T11:13:48.428Z,99896.69
2023-03-17T11:15:56.785Z,99895.59
2023-03-17T11:18:01.549Z,99895.16
2023-03-17T11:20:19.998Z,99896.06
2023-03-17T11:22:31.098Z,99901.41
2023-03-17T11:24:46.408Z,99901.00
2023-03-17T11:26:59.621Z,99890.06
2023-03-17T11:29:20.230Z,99896.75
2023-03-17T11:31:31.479Z,99895.09
2023-03-17T11:33:41.561Z,99884.31
2023-03-17T11:35:56.475Z,99885.06
2023-03-17T11:38:24.809Z,99878.56
2023-03-17T11:40:35.421Z,99886.41
2023-03-17T11:42:48.090Z,99880.22
2023-03-17T11:45:22.937Z,99876.81
2023-03-17T11:47:43.242Z,99871.75
2023-03-17T11:49:52.890Z,99869.81
2023-03-17T11:52:03.707Z,99868.53
2023-03-17T11:54:18.609Z,99868.22
2023-03-17T11:56:29.176Z,99877.72
2023-03-17T11:58:37.356Z,99867.91
2023-03-17T12:00:46.223Z,99857.22
2023-03-17T12:02:54.915Z,99855.38
2023-03-17T12:05:02.776Z,99846.63
2023-03-17T12:07:14.084Z,99850.38
2023-03-17T12:09:26.180Z,99842.38
2023-03-17T12:11:35.474Z,99835.94
2023-03-17T12:13:43.499Z,99831.38
2023-03-17T12:15:51.386Z,99837.13
2023-03-17T12:17:59.087Z,99828.06
2023-03-17T12:20:16.823Z,99825.16
2023-03-17T12:22:28.662Z,99830.91
2023-03-17T12:24:35.547Z,99821.94
2023-03-17T12:26:49.292Z,99821.44
2023-03-17T12:28:57.957Z,99822.34
2023-03-17T12:31:06.239Z,99817.94
2023-03-17T12:33:18.431Z,99814.06
2023-03-17T12:35:28.305Z,99810.75
2023-03-17T12:37:31.572Z,99804.50
2023-03-17T12:39:37.462Z,99808.19
2023-03-17T12:41:48.184Z,99807.84
2023-03-17T12:44:03.332Z,99805.34
2023-03-17T12:46:35.668Z,99800.41
2023-03-17T12:49:20.276Z,99797.84
2023-03-17T12:51:50.372Z,99795.03
2023-03-17T12:53:54.160Z,99788.25
2023-03-17T12:56:02.492Z,99793.38
2023-03-17T12:58:23.720Z,99787.72
2023-03-17T13:00:30.308Z,99776.84
2023-03-17T13:02:35.700Z,99777.75
2023-03-17T13:04:39.570Z,99774.66
2023-03-17T13:06:45.591Z,99776.59
2023-03-17T13:08:50.631Z,99775.63
2023-03-17T13:11:18.949Z,99769.22
2023-03-17T13:13:41.261Z,99781.34
2023-03-17T13:15:54.419Z,99753.38
2023-03-17T13:18:27.514Z,99772.84
2023-03-17T13:20:39.403Z,99762.94
2023-03-17T13:23:03.545Z,99756.34
2023-03-17T13:25:30.733Z,99751.09
2023-03-17T13:27:45.442Z,99744.69
2023-03-17T13:29:49.832Z,99746.06
2023-03-17T13:31:53.115Z,99741.00
2023-03-17T13:33:57.941Z,99746.53
2023-03-17T13:36:30.856Z,99735.25
2023-03-17T13:39:18.264Z,99723.50
2023-03-17T13:41:38.017Z,99710.75
2023-03-17T13:44:02.433Z,99713.91
2023-03-17T13:46:26.938Z,99714.19
2023-03-17T13:48:34.657Z,99704.63
2023-03-17T13:50:40.474Z,99707.72
2023-03-17T13:52:48.859Z,99701.34
2023-03-17T13:55:02.002Z,99698.28
2023-03-17T13:57:26.814Z,99698.28
2023-03-17T13:59:48.560Z,99691.94
2023-03-17T14:01:58.015Z,99689.25
2023-03-17T14:04:08.820Z,99687.69
2023-03-17T14:06:14.616Z,99692.19
2023-03-17T14:08:26.003Z,99695.06
2023-03-17T14:10:30.662Z,99690.84
2023-03-17T14:12:40.800Z,99682.16
2023-03-17T14:14:50.253Z,99686.03
2023-03-17T14:16:59.629Z,99685.03
2023-03-17T14:19:16.506Z,99690.09
2023-03-17T14:21:22.694Z,99693.84
2023-03-17T14:23:26.114Z,99691.84
2023-03-17T14:25:34.411Z,99685.94
2023-03-17T14:27:39.702Z,99686.41
2023-03-17T14:29:43.661Z,99680.31
2023-03-17T14:31:50.150Z,99671.28
2023-03-17T14:33:56.829Z,99674.22
2023-03-17T14:36:01.675Z,99665.25
2023-03-17T14:38:19.305Z,99660.59
2023-03-17T14:40:25.004Z,99653.59
2023-03-17T14:42:29.883Z,99645.09
2023-03-17T14:44:40.200Z,99643.09
2023-03-17T14:46:43.316Z,99639.38
2023-03-17T14:48:49.586Z,99635.03
2023-03-17T14:50:55.712Z,99629.78
2023-03-17T14:52:59.840Z,99630.31
2023-03-17T14:55:02.875Z,99636.09
2023-03-17T14:57:08.434Z,99642.16
2023-03-17T14:59:19.728Z,99634.72
2023-03-17T15:01:34.209Z,99631.03
2023-03-17T15:03:40.445Z,99630.53
2023-03-17T15:05:46.622Z,99626.13
2023-03-17T15:07:51.324Z,99632.78
2023-03-17T15:10:00.167Z,99621.50
2023-03-17T15:12:06.256Z,99625.63
2023-03-17T15:14:19.342Z,99629.13
2023-03-17T15:16:27.820Z,99630.41
2023-03-17T15:18:31.125Z,99626.41
2023-03-17T15:20:35.644Z,99625.16
2023-03-17T15:22:43.195Z,99620.22
2023-03-17T15:24:58.658Z,99627.25
2023-03-17T15:27:03.588Z,99625.22
2023-03-17T15:29:07.857Z,99627.31
2023-03-17T15:31:14.172Z,99623.59
2023-03-17T15:33:22.197Z,99614.91
2023-03-17T15:35:25.466Z,99627.72
2023-03-17T15:37:30.622Z,99624.13
2023-03-17T15:39:34.236Z,99610.50
2023-03-17T15:41:38.700Z,99612.31
2023-03-17T15:43:41.687Z,99609.31
2023-03-17T15:45:46.442Z,99609.88
2023-03-17T15:47:49.344Z,99612.03
2023-03-17T15:49:52.779Z,99610.69
2023-03-17T15:51:55.637Z,99608.56
2023-03-17T15:53:58.477Z,99610.78
2023-03-17T15:56:01.415Z,99612.72
2023-03-17T15:58:05.905Z,99610.44
2023-03-17T16:00:10.883Z,99610.16
2023-03-17T16:02:28.162Z,99603.09
2023-03-17T16:04:31.544Z,99603.81
2023-03-17T16:06:35.371Z,99600.47
2023-03-17T16:08:39.041Z,99603.63
2023-03-17T16:10:42.230Z,99599.28
2023-03-17T16:12:45.562Z,99600.81
2023-03-17T16:14:50.198Z,99608.94
2023-03-17T16:16:53.306Z,99608.09
2023-03-17T16:18:56.400Z,99612.94
2023-03-17T16:20:59.359Z,99605.91
2023-03-17T16:23:08.414Z,99608.03
2023-03-17T16:25:21.750Z,99602.69
2023-03-17T16:27:24.906Z,99608.91
2023-03-17T16:29:27.845Z,99616.19
2023-03-17T16:31:32.360Z,99615.78
2023-03-17T16:33:40.194Z,99617.09
2023-03-17T16:35:43.297Z,99612.94
2023-03-17T16:37:46.563Z,99612.16
2023-03-17T16:39:52.498Z,99613.47
2023-03-17T16:41:55.703Z,99614.94
2023-03-17T16:44:00.692Z,99616.63
2023-03-17T16:46:05.508Z,99619.38
2023-03-17T16:48:13.895Z,99620.25
2023-03-17T16:50:18.770Z,99617.56
2023-03-17T16:52:21.707Z,99624.19
2023-03-17T16:54:24.683Z,99623.78
2023-03-17T16:56:28.108Z,99615.31
2023-03-17T16:58:34.224Z,99627.06
2023-03-17T17:00:37.177Z,99614.66
2023-03-17T17:02:40.303Z,99617.88
2023-03-17T17:04:44.733Z,99608.16
2023-03-17T17:06:47.716Z,99611.78
2023-03-17T17:08:51.746Z,99609.84
2023-03-17T17:10:54.686Z,99613.34
2023-03-17T17:12:57.656Z,99610.31
2023-03-17T17:15:00.636Z,99603.91
2023-03-17T17:17:04.394Z,99609.59
2023-03-17T17:19:15.720Z,99607.84
2023-03-17T17:21:20.788Z,99609.72
2023-03-17T17:23:25.226Z,99605.53
2023-03-17T17:25:29.545Z,99610.25
2023-03-17T17:27:32.669Z,99610.84
2023-03-17T17:29:35.937Z,99617.53
2023-03-17T17:31:40.353Z,99619.03
2023-03-17T17:33:43.657Z,99617.06
2023-03-17T17:35:47.678Z,99614.53
2023-03-17T17:37:52.659Z,99620.41
2023-03-17T17:39:55.827Z,99622.97
2023-03-17T17:41:58.838Z,99612.47
2023-03-17T17:44:01.717Z,99617.53
2023-03-17T17:46:04.740Z,99623.59
2023-03-17T17:48:07.645Z,99621.59
2023-03-17T17:50:17.294Z,99620.41
2023-03-17T17:52:20.107Z,99626.97
2023-03-17T17:54:24.615Z,99623.41
2023-03-17T17:56:27.428Z,99619.81
2023-03-17T17:58:30.732Z,99622.94
2023-03-17T18:00:33.822Z,99623.03
2023-03-17T18:02:36.916Z,99624.19
2023-03-17T18:04:39.860Z,99626.59
2023-03-17T18:06:42.823Z,99629.06
2023-03-17T18:08:45.942Z,99632.56
2023-03-17T18:10:51.987Z,99635.69
2023-03-17T18:12:55.941Z,99636.06
2023-03-17T18:14:58.920Z,99635.22
2023-03-17T18:17:01.781Z,99639.03
2023-03-17T18:19:06.510Z,99630.28
2023-03-17T18:21:10.156Z,99633.84
2023-03-17T18:23:13.392Z,99628.94
2023-03-17T18:25:16.781Z,99627.69
2023-03-17T18:27:21.182Z,99632.56
2023-03-17T18:29:23.950Z,99631.75
2023-03-17T18:31:31.873Z,99627.34
2023-03-17T18:33:35.095Z,99624.50
2023-03-17T18:35:38.299Z,99622.13
2023-03-17T18:37:41.527Z,99628.59
2023-03-17T18:39:48.430Z,99616.09
2023-03-17T18:41:56.406Z,99613.34
2023-03-17T18:44:01.303Z,99610.94
2023-03-17T18:46:04.735Z,99614.78
2023-03-17T18:48:07.676Z,99616.44
2023-03-17T18:50:12.602Z,99608.53
2023-03-17T18:52:15.636Z,99605.06
2023-03-17T18:54:18.444Z,99613.47
2023-03-17T18:56:23.658Z,99609.84
2023-03-17T18:58:26.654Z,99614.59
2023-03-17T19:00:31.530Z,99618.09
2023-03-17T19:02:34.674Z,99616.19
2023-03-17T19:04:39.784Z,99608.41
2023-03-17T19:06:43.061Z,99604.91
2023-03-17T19:08:46.994Z,99595.38
2023-03-17T19:10:50.386Z,99595.00
2023-03-17T19:12:53.653Z,99598.31
2023-03-17T19:14:56.733Z,99589.03
2023-03-17T19:17:01.412Z,99590.31
2023-03-17T19:19:04.456Z,99587.88
2023-03-17T19:21:08.782Z,99578.41
2023-03-17T19:23:12.748Z,99576.66
2023-03-17T19:25:16.977Z,99583.16
2023-03-17T19:27:20.349Z,99573.06
2023-03-17T19:29:23.440Z,99571.78
2023-03-17T19:31:27.429Z,99576.28
2023-03-17T19:33:32.976Z,99574.53
2023-03-17T19:35:35.883Z,99572.41
2023-03-17T19:37:38.839Z,99574.59
2023-03-17T19:39:44.640Z,99576.28
2023-03-17T19:41:50.373Z,99575.81
2023-03-17T19:43:53.170Z,99568.69
2023-03-17T19:45:56.269Z,99574.34
2023-03-17T19:47:59.112Z,99572.38
2023-03-17T19:50:03.535Z,99575.88
2023-03-17T19:52:06.867Z,99569.53
2023-03-17T19:54:11.485Z,99568.53
2023-03-17T19:56:14.815Z,99579.19
2023-03-17T19:58:17.733Z,99569.19
2023-03-17T20:00:22.845Z,99573.38
2023-03-17T20:02:25.903Z,99575.75
2023-03-17T20:04:29.103Z,99574.47
2023-03-17T20:06:34.923Z,99564.19
2023-03-17T20:08:38.031Z,99560.31
2023-03-17T20:10:40.954Z,99573.81
2023-03-17T20:12:46.083Z,99566.41
2023-03-17T20:14:49.154Z,99569.84
2023-03-17T20:16:52.274Z,99558.22
2023-03-17T20:18:55.277Z,99560.25
2023-03-17T20:21:00.436Z,99561.06
2023-03-17T20:23:04.924Z,99569.22
2023-03-17T20:25:10.654Z,99564.44
2023-03-17T20:27:16.634Z,99569.47
2023-03-17T20:29:20.226Z,99562.56
2023-03-17T20:31:23.820Z,99568.88
2023-03-17T20:33:27.063Z,99565.56
2023-03-17T20:35:31.168Z,99569.25
2023-03-17T20:37:34.275Z,99570.47
2023-03-17T20:39:38.714Z,99576.75
2023-03-17T20:41:41.920Z,99573.50
2023-03-17T20:43:45.507Z,99582.00
2023-03-17T20:45:51.375Z,99575.09
2023-03-17T20:47:54.855Z,99572.19
2023-03-17T20:49:59.173Z,99570.88
2023-03-17T20:52:02.333Z,99566.78
2023-03-17T20:54:05.599Z,99565.94
2023-03-17T20:56:12.815Z,99564.13
2023-03-17T20:58:15.845Z,99560.47
2023-03-17T21:00:21.578Z,99564.28
2023-03-17T21:02:24.668Z,99562.34
2023-03-17T21:04:27.935Z,99570.34
2023-03-17T21:06:31.735Z,99566.06
2023-03-17T21:08:34.983Z,99566.31
2023-03-17T21:10:37.854Z,99566.56
2023-03-17T21:12:42.397Z,99568.63
2023-03-17T21:14:45.622Z,99570.28
2023-03-17T21:16:48.765Z,99561.88
2023-03-17T21:18:51.878Z,99566.47
2023-03-17T21:20:54.844Z,99563.00
2023-03-17T21:22:58.164Z,99574.19
2023-03-17T21:25:01.686Z,99574.84
2023-03-17T21:27:07.154Z,99572.84
2023-03-17T21:29:12.074Z,99577.44
2023-03-17T21:31:17.453Z,99576.25
2023-03-17T21:33:20.026Z,99569.78
2023-03-17T21:35:25.162Z,99574.41
2023-03-17T21:37:28.363Z,99576.91
2023-03-17T21:39:32.972Z,99578.38
2023-03-17T21:41:38.188Z,99579.22
2023-03-17T21:43:41.049Z,99576.56
2023-03-17T21:45:45.587Z,99580.81
2023-03-17T21:47:48.468Z,99588.31
2023-03-17T21:49:51.434Z,99580.50
2023-03-17T21:51:55.032Z,99583.19
2023-03-17T21:53:58.342Z,99585.16
2023-03-17T21:56:01.461Z,99579.53
2023-03-17T21:58:04.393Z,99581.38
2023-03-17T22:00:09.933Z,99580.72
2023-03-17T22:02:17.965Z,99573.00
2023-03-17T22:04:20.794Z,99572.25
2023-03-17T22:06:26.483Z,99571.09
2023-03-17T22:08:29.142Z,99574.28
2023-03-17T22:10:32.422Z,99569.13
2023-03-17T22:12:36.477Z,99564.91
2023-03-17T22:14:39.622Z,99572.38
2023-03-17T22:16:42.551Z,99571.38
2023-03-17T22:18:47.780Z,99568.91
2023-03-17T22:20:54.183Z,99566.91
2023-03-17T22:22:57.126Z,99562.78
2023-03-17T22:25:00.674Z,99562.44
2023-03-17T22:27:03.885Z,99569.09
2023-03-17T22:29:06.873Z,99570.56
2023-03-17T22:31:13.988Z,99566.59
2023-03-17T22:33:17.879Z,99563.13
2023-03-17T22:35:23.709Z,99568.13
2023-03-17T22:37:26.968Z,99563.50
2023-03-17T22:39:29.894Z,99563.50
2023-03-17T22:41:32.789Z,99562.06
2023-03-17T22:43:36.196Z,99565.34
2023-03-17T22:45:39.484Z,99560.22
2023-03-17T22:47:42.938Z,99553.56
2023-03-17T22:49:45.828Z,99560.34
2023-03-17T22:51:50.468Z,99563.00
2023-03-17T22:53:55.147Z,99563.31
2023-03-17T22:55:58.379Z,99553.16
2023-03-17T22:58:01.239Z,99555.84
2023-03-17T23:00:09.340Z,99556.69
2023-03-17T23:02:12.269Z,99554.09
2023-03-17T23:04:15.246Z,99558.22
2023-03-17T23:06:18.600Z,99554.09
2023-03-17T23:08:23.542Z,99547.00
2023-03-17T23:10:27.114Z,99548.00
2023-03-17T23:12:30.061Z,99551.34
2023-03-17T23:14:32.952Z,99543.41
2023-03-17T23:16:35.893Z,99546.19
2023-03-17T23:18:38.948Z,99546.06
2023-03-17T23:20:42.860Z,99542.38
2023-03-17T23:22:45.693Z,99551.00
2023-03-17T23:24:50.338Z,99544.88
2023-03-17T23:26:53.211Z,99554.00
2023-03-17T23:28:56.419Z,99549.50
2023-03-17T23:30:59.660Z,99548.38
2023-03-17T23:33:03.304Z,99550.03
2023-03-17T23:35:07.424Z,99546.41
2023-03-17T23:37:10.616Z,99550.03
2023-03-17T23:39:13.716Z,99550.69
2023-03-17T23:41:18.695Z,99555.50
2023-03-17T23:43:21.705Z,99558.97
2023-03-17T23:45:25.238Z,99557.16
2023-03-17T23:47:28.392Z,99558.28
2023-03-17T23:49:31.453Z,99556.47
2023-03-17T23:51:35.874Z,99548.16
2023-03-17T23:53:42.702Z,99554.63
2023-03-17T23:55:46.055Z,99554.47
2023-03-17T23:58:02.213Z,99552.13
